Time;durP1;ratioP1;P1;durP2;ratioP2;P2;SDS_P1;SDS_P2;PMS_P1;PMS_P2;Temp;Humidity;BMP_temperature;BMP_pressure;BME280_temperature;BME280_humidity;BME280_pressure;Samples;Min_cycle;Max_cycle;Signal;HPM_P1;HPM_P2
2023/07/31 00:00:06;;;;;;;4.47;3.47;;;21.50;99.90;;;;;;5110728;28;20251;-79
2023/07/31 00:02:33;;;;;;;5.22;3.50;;;21.40;99.90;;;;;;5109652;28;20208;-69
2023/07/31 00:05:01;;;;;;;8.73;4.28;;;21.40;99.90;;;;;;5110502;28;20711;-69
2023/07/31 00:07:28;;;;;;;6.68;3.53;;;21.40;99.90;;;;;;5110861;28;20281;-69
2023/07/31 00:09:56;;;;;;;3.95;3.63;;;21.40;99.90;;;;;;5110577;28;20688;-69
2023/07/31 00:12:23;;;;;;;4.85;3.72;;;21.40;99.90;;;;;;5110474;28;20211;-70
2023/07/31 00:14:50;;;;;;;5.93;3.42;;;21.50;99.90;;;;;;5110559;28;20240;-69
2023/07/31 00:17:18;;;;;;;3.10;2.80;;;21.50;99.90;;;;;;5110601;28;20212;-69
2023/07/31 00:19:46;;;;;;;6.10;3.78;;;21.50;99.90;;;;;;5110633;28;20240;-69
2023/07/31 00:22:14;;;;;;;5.32;2.88;;;21.40;99.90;;;;;;5110683;28;20295;-70
2023/07/31 00:24:41;;;;;;;5.40;3.58;;;21.40;99.90;;;;;;5110504;28;20236;-69
2023/07/31 00:27:08;;;;;;;6.90;3.17;;;21.30;99.90;;;;;;5110555;28;20579;-70
2023/07/31 00:29:35;;;;;;;6.07;4.00;;;21.20;99.90;;;;;;5111017;28;20680;-70
2023/07/31 00:32:01;;;;;;;7.65;3.33;;;21.20;99.90;;;;;;5110619;28;20248;-69
2023/07/31 00:34:28;;;;;;;4.18;3.28;;;21.20;99.90;;;;;;5112400;28;20232;-69
2023/07/31 00:36:55;;;;;;;4.32;3.47;;;21.10;99.90;;;;;;5114259;28;20251;-69
2023/07/31 00:39:23;;;;;;;6.53;4.32;;;21.10;99.90;;;;;;5114388;28;20240;-69
2023/07/31 00:41:50;;;;;;;5.43;2.90;;;21.10;99.90;;;;;;5114147;27;20205;-69
2023/07/31 00:44:17;;;;;;;5.88;4.10;;;21.10;99.90;;;;;;5086658;28;20224;-69
2023/07/31 00:46:44;;;;;;;7.68;4.10;;;21.10;99.90;;;;;;5114268;28;20270;-69
2023/07/31 00:49:12;;;;;;;4.35;3.53;;;21.00;99.90;;;;;;5114417;28;20229;-69
2023/07/31 00:51:39;;;;;;;5.40;3.35;;;20.90;99.90;;;;;;5114770;28;20668;-69
2023/07/31 00:54:07;;;;;;;4.45;3.42;;;20.90;99.90;;;;;;5113897;28;20248;-69
2023/07/31 00:56:35;;;;;;;9.88;4.47;;;21.00;99.90;;;;;;5114693;28;20255;-70
2023/07/31 00:59:02;;;;;;;5.35;4.00;;;20.90;99.90;;;;;;5113676;28;20245;-68
2023/07/31 01:01:29;;;;;;;6.00;4.25;;;21.00;99.90;;;;;;5114333;27;20244;-69
2023/07/31 01:03:56;;;;;;;4.43;4.03;;;20.90;99.90;;;;;;5114003;28;20236;-69
2023/07/31 01:06:34;;;;;;;4.10;3.70;;;20.80;99.90;;;;;;5085960;28;20250;-69
2023/07/31 01:09:04;;;;;;;6.03;4.57;;;20.80;99.90;;;;;;5113415;28;20208;-79
2023/07/31 01:11:34;;;;;;;4.53;4.05;;;20.70;99.90;;;;;;5086506;28;20265;-69
2023/07/31 01:14:02;;;;;;;4.95;3.60;;;20.60;99.90;;;;;;5113805;28;20635;-69
2023/07/31 01:16:29;;;;;;;7.88;4.32;;;20.60;99.90;;;;;;5113999;28;20201;-78
2023/07/31 01:18:56;;;;;;;7.70;4.22;;;20.60;99.90;;;;;;5113450;28;20239;-69
2023/07/31 01:21:42;;;;;;;5.22;3.60;;;20.60;99.90;;;;;;5113617;28;20237;-69
2023/07/31 01:24:30;;;;;;;5.03;4.38;;;20.50;99.90;;;;;;5113442;28;20563;-69
2023/07/31 01:27:05;;;;;;;5.03;4.32;;;20.50;99.90;;;;;;5113270;28;20312;-68
2023/07/31 01:29:39;;;;;;;5.00;4.28;;;20.50;99.90;;;;;;5113508;28;20240;-69
2023/07/31 01:32:08;;;;;;;6.82;3.88;;;20.40;99.90;;;;;;5113444;28;20236;-69
2023/07/31 01:34:36;;;;;;;4.95;4.35;;;20.30;99.90;;;;;;5113978;28;20240;-76
2023/07/31 01:37:04;;;;;;;4.70;3.95;;;20.40;99.90;;;;;;5113325;28;20215;-78
2023/07/31 01:39:31;;;;;;;10.00;4.53;;;20.30;99.90;;;;;;5113297;28;20634;-78
2023/07/31 01:41:59;;;;;;;6.38;3.92;;;20.30;99.90;;;;;;5112566;28;20232;-69
2023/07/31 01:44:26;;;;;;;5.28;4.68;;;20.20;99.90;;;;;;5112901;27;20232;-69
2023/07/31 01:46:52;;;;;;;5.82;4.90;;;20.20;99.90;;;;;;5113115;28;20260;-72
2023/07/31 01:49:19;;;;;;;7.20;4.22;;;20.20;99.90;;;;;;5113130;28;20256;-69
2023/07/31 01:51:46;;;;;;;5.20;4.32;;;20.20;99.90;;;;;;5112822;28;20724;-69
2023/07/31 01:54:13;;;;;;;4.97;4.07;;;20.20;99.90;;;;;;5113042;27;20231;-69
2023/07/31 01:56:40;;;;;;;9.00;4.72;;;20.20;99.90;;;;;;5113188;28;20281;-69
2023/07/31 01:59:08;;;;;;;7.65;4.10;;;20.20;99.90;;;;;;5113084;27;20333;-79
2023/07/31 02:01:35;;;;;;;6.85;4.47;;;20.10;99.90;;;;;;5105595;28;20256;-69
2023/07/31 02:04:04;;;;;;;5.75;4.15;;;20.10;99.90;;;;;;5110209;28;20665;-69
2023/07/31 02:06:31;;;;;;;7.60;4.63;;;20.10;99.90;;;;;;5112617;28;20701;-69
2023/07/31 02:08:58;;;;;;;5.47;4.85;;;20.10;99.90;;;;;;5112211;28;20315;-69
2023/07/31 02:11:25;;;;;;;4.25;3.85;;;20.00;99.90;;;;;;5112730;27;20580;-69
2023/07/31 02:13:52;;;;;;;5.70;4.25;;;20.00;99.90;;;;;;5112415;28;20228;-79
2023/07/31 02:16:20;;;;;;;6.93;4.18;;;20.00;99.90;;;;;;5112828;28;20248;-70
2023/07/31 02:18:47;;;;;;;4.70;4.20;;;20.00;99.90;;;;;;5112491;28;20263;-69
2023/07/31 02:21:14;;;;;;;4.60;4.20;;;19.90;99.90;;;;;;5112313;28;20240;-69
2023/07/31 02:23:41;;;;;;;4.50;3.80;;;19.80;99.90;;;;;;5112671;28;20240;-69
2023/07/31 02:26:07;;;;;;;4.28;3.63;;;19.90;99.90;;;;;;5112893;28;20232;-69
2023/07/31 02:28:34;;;;;;;5.32;4.88;;;19.90;99.90;;;;;;5112493;28;20311;-70
2023/07/31 02:31:01;;;;;;;4.55;4.00;;;19.90;99.90;;;;;;5112261;28;20265;-69
2023/07/31 02:33:30;;;;;;;7.60;3.47;;;19.90;99.90;;;;;;5112414;28;20277;-78
2023/07/31 02:35:57;;;;;;;6.45;3.83;;;19.80;99.90;;;;;;5111777;28;20204;-79
2023/07/31 02:38:23;;;;;;;4.35;3.53;;;19.90;99.90;;;;;;5112272;28;20236;-69
2023/07/31 02:40:50;;;;;;;7.32;5.05;;;19.90;99.90;;;;;;5111700;28;20240;-79
2023/07/31 02:43:17;;;;;;;4.32;3.92;;;19.80;99.90;;;;;;5112240;28;20240;-69
2023/07/31 02:45:44;;;;;;;5.22;4.68;;;19.70;99.90;;;;;;5112168;28;20668;-69
2023/07/31 02:48:11;;;;;;;6.10;3.97;;;19.70;99.90;;;;;;5111946;28;20256;-69
2023/07/31 02:50:39;;;;;;;6.40;4.90;;;19.70;99.90;;;;;;5112106;28;20240;-69
2023/07/31 02:53:05;;;;;;;4.65;4.10;;;19.80;99.90;;;;;;5111556;28;20281;-80
2023/07/31 02:55:32;;;;;;;4.90;3.95;;;19.70;99.90;;;;;;5112017;28;20672;-69
2023/07/31 02:57:59;;;;;;;6.22;4.20;;;19.70;99.90;;;;;;5110823;28;20829;-69
2023/07/31 03:00:26;;;;;;;5.50;4.53;;;19.60;99.90;;;;;;5111625;28;20273;-69
2023/07/31 03:02:53;;;;;;;4.97;4.18;;;19.50;99.90;;;;;;5111556;28;20245;-68
2023/07/31 03:05:20;;;;;;;4.95;4.05;;;19.60;99.90;;;;;;5111410;28;20251;-69
2023/07/31 03:07:48;;;;;;;3.97;3.58;;;19.50;99.90;;;;;;5111235;28;20682;-68
2023/07/31 03:10:15;;;;;;;5.40;4.38;;;19.40;99.90;;;;;;5111619;28;20348;-79
2023/07/31 03:12:42;;;;;;;4.65;4.05;;;19.40;99.90;;;;;;5111788;28;20273;-69
2023/07/31 03:15:10;;;;;;;9.27;4.13;;;19.30;99.90;;;;;;5111834;28;20236;-69
2023/07/31 03:17:36;;;;;;;4.13;3.70;;;19.40;99.90;;;;;;5111768;28;20247;-68
2023/07/31 03:20:05;;;;;;;6.97;3.67;;;19.40;99.90;;;;;;5110698;28;20684;-69
2023/07/31 03:22:32;;;;;;;8.52;3.92;;;19.40;99.90;;;;;;5111502;28;20233;-69
2023/07/31 03:25:00;;;;;;;7.85;4.50;;;19.30;99.90;;;;;;5111469;28;21067;-69
2023/07/31 03:27:27;;;;;;;5.05;3.65;;;19.40;99.90;;;;;;5111406;28;20319;-68
2023/07/31 03:29:54;;;;;;;7.32;3.63;;;19.30;99.90;;;;;;5111134;28;20247;-69
2023/07/31 03:32:21;;;;;;;5.20;3.83;;;19.50;99.90;;;;;;5111327;28;20703;-69
2023/07/31 03:34:48;;;;;;;5.78;3.58;;;19.50;99.90;;;;;;5096523;28;20282;-68
2023/07/31 03:37:15;;;;;;;5.68;3.75;;;19.50;99.90;;;;;;5111174;28;20247;-69
2023/07/31 03:39:41;;;;;;;5.55;4.13;;;19.50;99.90;;;;;;5111407;28;20260;-69
2023/07/31 03:42:10;;;;;;;5.32;4.53;;;19.40;99.90;;;;;;5111079;28;20247;-70
2023/07/31 03:44:37;;;;;;;7.55;4.78;;;19.30;99.90;;;;;;5111531;28;20236;-68
2023/07/31 03:47:04;;;;;;;6.22;4.10;;;19.30;99.90;;;;;;5110645;28;20248;-69
2023/07/31 03:49:31;;;;;;;4.05;3.67;;;19.30;99.90;;;;;;5110814;28;20264;-69
2023/07/31 03:51:57;;;;;;;5.13;3.58;;;19.40;99.90;;;;;;5110568;28;20243;-68
2023/07/31 03:54:24;;;;;;;7.30;4.18;;;19.40;99.90;;;;;;5111048;28;20244;-69
2023/07/31 03:56:51;;;;;;;4.57;3.42;;;19.20;99.90;;;;;;5110814;28;20240;-69
2023/07/31 03:59:19;;;;;;;6.57;4.07;;;19.00;99.90;;;;;;5082809;28;20228;-68
2023/07/31 04:01:46;;;;;;;6.05;4.55;;;18.90;99.90;;;;;;5110431;28;20247;-69
2023/07/31 04:04:13;;;;;;;7.53;5.53;;;18.90;99.90;;;;;;5110495;28;20247;-68
2023/07/31 04:06:40;;;;;;;7.90;5.35;;;19.00;99.90;;;;;;5110999;28;20236;-68
2023/07/31 04:09:07;;;;;;;8.85;5.43;;;19.00;99.90;;;;;;5115753;28;20673;-70
2023/07/31 04:11:34;;;;;;;8.43;6.60;;;18.90;99.90;;;;;;5117772;27;20208;-69
2023/07/31 04:14:01;;;;;;;8.15;6.18;;;18.90;99.90;;;;;;5117431;27;20232;-70
2023/07/31 04:16:29;;;;;;;5.75;5.10;;;18.80;99.90;;;;;;5117445;27;20200;-68
2023/07/31 04:18:56;;;;;;;8.52;4.78;;;18.80;99.90;;;;;;5117240;27;20263;-69
2023/07/31 04:21:23;;;;;;;5.32;4.45;;;18.80;99.90;;;;;;5117841;27;20211;-79
2023/07/31 04:23:49;;;;;;;6.32;5.22;;;18.80;99.90;;;;;;5116691;27;20240;-69
2023/07/31 04:26:17;;;;;;;8.57;5.03;;;18.90;99.90;;;;;;5117681;27;20702;-68
2023/07/31 04:28:44;;;;;;;6.00;4.57;;;18.90;99.90;;;;;;5116950;27;20228;-69
2023/07/31 04:31:11;;;;;;;6.68;4.55;;;18.90;99.90;;;;;;5117234;27;20659;-79
2023/07/31 04:33:39;;;;;;;4.45;4.03;;;18.90;99.90;;;;;;5118020;27;20240;-68
2023/07/31 04:36:06;;;;;;;8.70;4.43;;;18.90;99.90;;;;;;5117097;27;20236;-69
2023/07/31 04:38:33;;;;;;;5.63;4.57;;;18.80;99.90;;;;;;5117538;27;20658;-69
2023/07/31 04:41:00;;;;;;;7.10;5.32;;;18.70;99.90;;;;;;5117070;27;20236;-68
2023/07/31 04:43:26;;;;;;;9.23;4.82;;;18.70;99.90;;;;;;5117344;27;20243;-69
2023/07/31 04:45:54;;;;;;;5.18;4.50;;;18.70;99.90;;;;;;5116872;27;20240;-69
2023/07/31 04:48:20;;;;;;;6.38;4.13;;;18.70;99.90;;;;;;5117352;27;20228;-69
2023/07/31 04:50:49;;;;;;;9.13;3.47;;;18.70;99.90;;;;;;5117097;27;20236;-78
2023/07/31 04:53:16;;;;;;;5.47;3.78;;;18.70;99.90;;;;;;5117015;27;20248;-69
2023/07/31 04:55:42;;;;;;;9.15;3.92;;;18.70;99.90;;;;;;5116781;27;20228;-69
2023/07/31 04:58:09;;;;;;;6.60;4.25;;;18.70;99.90;;;;;;5116951;27;20251;-69
2023/07/31 05:00:36;;;;;;;6.78;3.78;;;18.70;99.90;;;;;;5116868;27;20691;-68
2023/07/31 05:03:03;;;;;;;7.70;4.05;;;18.80;99.90;;;;;;5116579;27;20704;-79
2023/07/31 05:05:30;;;;;;;6.47;4.28;;;18.80;99.90;;;;;;5117190;27;20304;-75
2023/07/31 05:07:58;;;;;;;6.22;4.30;;;18.80;99.90;;;;;;5116794;27;20275;-68
2023/07/31 05:10:25;;;;;;;5.60;2.97;;;18.90;99.90;;;;;;5116930;27;20688;-69
2023/07/31 05:12:52;;;;;;;8.27;4.40;;;19.00;99.90;;;;;;5116600;27;20332;-78
2023/07/31 05:15:19;;;;;;;4.80;3.13;;;19.00;99.90;;;;;;5117017;27;20240;-69
2023/07/31 05:17:46;;;;;;;5.88;3.35;;;18.90;99.90;;;;;;5116916;27;20208;-69
2023/07/31 05:20:14;;;;;;;3.97;3.05;;;18.90;99.90;;;;;;5114494;27;20243;-79
2023/07/31 05:22:41;;;;;;;3.92;3.13;;;18.90;99.90;;;;;;5113698;28;20606;-69
2023/07/31 05:25:10;;;;;;;6.22;3.78;;;19.00;99.90;;;;;;5113854;28;20239;-68
2023/07/31 05:27:37;;;;;;;6.40;3.67;;;19.00;99.90;;;;;;5114165;28;20281;-68
2023/07/31 05:30:04;;;;;;;4.53;3.20;;;19.00;99.90;;;;;;5113033;28;20264;-68
2023/07/31 05:32:31;;;;;;;6.55;4.10;;;19.10;99.90;;;;;;5113699;28;20251;-69
2023/07/31 05:34:58;;;;;;;7.15;4.18;;;19.10;99.90;;;;;;5113292;28;20200;-68
2023/07/31 05:37:25;;;;;;;4.63;3.50;;;19.10;99.90;;;;;;5113323;28;20251;-69
2023/07/31 05:39:52;;;;;;;7.20;4.13;;;19.10;99.90;;;;;;5113103;28;20209;-69
2023/07/31 05:42:20;;;;;;;9.63;4.38;;;19.10;99.90;;;;;;5113241;28;20211;-72
2023/07/31 05:44:47;;;;;;;8.07;3.75;;;19.10;99.90;;;;;;5111341;28;20228;-73
2023/07/31 05:47:14;;;;;;;6.13;4.20;;;19.10;99.90;;;;;;5095835;28;20587;-72
2023/07/31 05:49:41;;;;;;;5.25;3.53;;;19.10;99.90;;;;;;5099794;28;20260;-73
2023/07/31 05:52:08;;;;;;;4.38;3.45;;;19.10;99.90;;;;;;5092476;28;20201;-73
2023/07/31 05:54:35;;;;;;;6.70;3.10;;;19.20;99.90;;;;;;5092820;28;20669;-73
2023/07/31 05:57:02;;;;;;;4.68;4.10;;;19.20;99.90;;;;;;5092256;28;20241;-73
2023/07/31 05:59:32;;;;;;;5.22;3.22;;;19.20;99.90;;;;;;5092138;28;20245;-73
2023/07/31 06:01:59;;;;;;;7.18;4.07;;;19.20;99.90;;;;;;5091915;28;20310;-74
2023/07/31 06:04:26;;;;;;;5.20;3.45;;;19.20;99.90;;;;;;5092225;28;20236;-73
2023/07/31 06:06:53;;;;;;;6.15;3.47;;;19.20;99.90;;;;;;5091834;28;20744;-73
2023/07/31 06:09:21;;;;;;;5.28;2.88;;;19.30;99.90;;;;;;5092316;28;20676;-74
2023/07/31 06:11:48;;;;;;;6.72;3.85;;;19.20;99.90;;;;;;5109923;28;20296;-73
2023/07/31 06:14:15;;;;;;;4.88;3.58;;;19.30;99.90;;;;;;5101517;28;20574;-74
2023/07/31 06:16:43;;;;;;;10.85;4.40;;;19.40;99.90;;;;;;5091968;28;20266;-74
2023/07/31 06:19:11;;;;;;;9.13;4.20;;;19.40;99.90;;;;;;5091809;28;20207;-73
2023/07/31 06:21:38;;;;;;;6.32;3.38;;;19.50;99.90;;;;;;5091602;28;20225;-74
2023/07/31 06:24:05;;;;;;;7.32;3.72;;;19.50;99.90;;;;;;5091586;28;20701;-73
2023/07/31 06:26:32;;;;;;;5.68;3.28;;;19.60;99.90;;;;;;5103324;28;20232;-72
2023/07/31 06:28:59;;;;;;;4.57;2.92;;;19.70;99.90;;;;;;5093493;28;20279;-75
2023/07/31 06:31:26;;;;;;;10.13;3.28;;;19.70;99.90;;;;;;5110960;28;20247;-73
2023/07/31 06:33:54;;;;;;;7.75;3.67;;;19.70;99.90;;;;;;5111629;28;20257;-74
2023/07/31 06:36:21;;;;;;;8.10;3.22;;;19.80;99.90;;;;;;5100923;27;20237;-73
2023/07/31 06:38:48;;;;;;;7.32;3.63;;;19.80;99.90;;;;;;5090980;28;20570;-72
2023/07/31 06:41:15;;;;;;;9.40;3.25;;;19.80;99.90;;;;;;5091272;28;20212;-73
2023/07/31 06:43:42;;;;;;;6.15;3.45;;;19.80;99.90;;;;;;5090864;28;20229;-69
2023/07/31 06:46:10;;;;;;;6.90;3.65;;;19.90;99.90;;;;;;5093490;28;20206;-70
2023/07/31 06:48:37;;;;;;;8.63;4.00;;;20.00;99.90;;;;;;5104248;28;20218;-75
2023/07/31 06:51:06;;;;;;;4.80;2.97;;;20.20;99.90;;;;;;5091778;28;20210;-77
2023/07/31 06:53:33;;;;;;;6.95;3.10;;;20.30;99.90;;;;;;5091607;28;20286;-72
2023/07/31 06:55:59;;;;;;;6.43;3.42;;;20.30;99.90;;;;;;5091304;28;20696;-71
2023/07/31 06:58:26;;;;;;;4.20;3.05;;;20.40;99.90;;;;;;5091084;28;20693;-74
2023/07/31 07:00:53;;;;;;;5.38;3.30;;;20.50;99.90;;;;;;5090547;28;20244;-74
2023/07/31 07:03:20;;;;;;;2.92;2.67;;;21.00;99.90;;;;;;5087458;28;20312;-72
2023/07/31 07:05:47;;;;;;;5.95;2.72;;;21.50;99.90;;;;;;5090233;28;20685;-72
2023/07/31 07:08:16;;;;;;;6.20;3.17;;;21.20;99.90;;;;;;5091370;28;20684;-77
2023/07/31 07:10:43;;;;;;;4.20;2.67;;;21.00;99.90;;;;;;5099890;28;20287;-74
2023/07/31 07:13:10;;;;;;;8.35;3.50;;;20.90;99.90;;;;;;5108960;28;20723;-75
2023/07/31 07:15:37;;;;;;;5.68;3.22;;;21.00;99.90;;;;;;5091511;28;20209;-71
2023/07/31 07:18:04;;;;;;;7.30;3.55;;;21.00;99.90;;;;;;5091167;28;20210;-73
2023/07/31 07:20:31;;;;;;;4.20;2.97;;;20.90;99.90;;;;;;5090721;28;20259;-77
2023/07/31 07:22:58;;;;;;;4.80;3.67;;;21.10;99.90;;;;;;5088551;28;20198;-73
2023/07/31 07:25:26;;;;;;;9.45;3.85;;;21.40;99.90;;;;;;5090517;28;20241;-72
2023/07/31 07:27:54;;;;;;;12.30;3.83;;;21.40;99.90;;;;;;5090668;28;20246;-72
2023/07/31 07:30:21;;;;;;;8.23;3.40;;;21.40;99.90;;;;;;5090992;28;20324;-76
2023/07/31 07:32:48;;;;;;;7.47;2.63;;;21.40;99.90;;;;;;5090219;28;20240;-71
2023/07/31 07:35:15;;;;;;;5.95;3.70;;;21.40;99.90;;;;;;5090584;28;20290;-78
2023/07/31 07:37:42;;;;;;;5.80;4.07;;;21.40;99.90;;;;;;5090707;28;20232;-68
2023/07/31 07:40:10;;;;;;;6.22;3.10;;;21.60;99.90;;;;;;5090816;28;20237;-68
2023/07/31 07:42:38;;;;;;;6.40;3.45;;;21.60;99.90;;;;;;5090822;28;20289;-78
2023/07/31 07:45:06;;;;;;;12.32;4.85;;;21.80;99.90;;;;;;5090680;28;20201;-70
2023/07/31 07:47:33;;;;;;;4.70;3.53;;;21.90;99.90;;;;;;5090433;28;20233;-74
2023/07/31 07:50:00;;;;;;;8.60;3.72;;;21.90;99.90;;;;;;5090051;28;20724;-70
2023/07/31 07:52:27;;;;;;;8.60;3.90;;;22.60;99.90;;;;;;5090427;28;20229;-71
2023/07/31 07:54:53;;;;;;;6.88;3.38;;;23.10;99.90;;;;;;5090056;28;20257;-68
2023/07/31 07:57:20;;;;;;;4.28;3.25;;;22.80;99.90;;;;;;5090410;28;20235;-77
2023/07/31 07:59:49;;;;;;;9.25;3.60;;;22.50;99.90;;;;;;5089701;28;20201;-72
2023/07/31 08:02:16;;;;;;;5.88;3.08;;;22.50;99.90;;;;;;5090413;28;20309;-74
2023/07/31 08:04:42;;;;;;;7.85;3.50;;;22.50;99.90;;;;;;5090170;28;20244;-67
2023/07/31 08:07:12;;;;;;;6.82;3.38;;;22.40;99.90;;;;;;5090158;28;20240;-68
2023/07/31 08:09:39;;;;;;;6.93;3.72;;;22.40;99.90;;;;;;5090580;28;20261;-69
2023/07/31 08:12:06;;;;;;;6.00;3.00;;;22.50;99.90;;;;;;5109917;28;20244;-74
2023/07/31 08:14:33;;;;;;;6.90;4.05;;;22.60;99.90;;;;;;5097113;28;20242;-74
2023/07/31 08:17:02;;;;;;;6.95;3.20;;;22.60;99.90;;;;;;5088523;28;20205;-79
2023/07/31 08:19:29;;;;;;;6.18;3.70;;;22.70;99.90;;;;;;5090690;28;20241;-70
2023/07/31 08:21:56;;;;;;;4.45;2.70;;;22.80;99.90;;;;;;5090037;28;20244;-75
2023/07/31 08:24:23;;;;;;;5.97;3.03;;;22.90;99.90;;;;;;5089956;28;20695;-70
2023/07/31 08:26:50;;;;;;;6.07;2.75;;;22.90;99.90;;;;;;5089970;28;20289;-75
2023/07/31 08:29:17;;;;;;;6.18;3.55;;;23.00;99.90;;;;;;5090554;28;20317;-77
2023/07/31 08:31:44;;;;;;;8.35;3.75;;;23.10;99.90;;;;;;5089647;28;20617;-71
2023/07/31 08:34:12;;;;;;;4.93;2.63;;;23.20;99.90;;;;;;5090244;28;20237;-74
2023/07/31 08:36:39;;;;;;;7.47;2.78;;;23.30;99.90;;;;;;5090276;28;20262;-69
2023/07/31 08:39:06;;;;;;;6.40;3.22;;;23.30;99.90;;;;;;5089644;28;20244;-76
2023/07/31 08:41:38;;;;;;;6.22;3.55;;;23.40;99.90;;;;;;5090316;28;20241;-78
2023/07/31 08:44:05;;;;;;;5.50;3.25;;;23.70;99.90;;;;;;5089940;28;20252;-77
2023/07/31 08:46:33;;;;;;;7.28;3.63;;;23.80;99.90;;;;;;5090010;28;20651;-71
2023/07/31 08:49:01;;;;;;;4.03;2.78;;;23.70;99.90;;;;;;5089616;28;20286;-74
2023/07/31 08:51:30;;;;;;;3.80;2.78;;;23.80;99.90;;;;;;5089997;28;20241;-77
2023/07/31 08:53:58;;;;;;;4.03;2.95;;;24.10;99.90;;;;;;5087350;28;20241;-77
2023/07/31 08:56:26;;;;;;;2.20;2.00;;;24.40;99.90;;;;;;5093093;28;20205;-77
2023/07/31 08:58:54;;;;;;;6.45;2.53;;;24.50;99.90;;;;;;5087414;28;20236;-78
2023/07/31 09:01:21;;;;;;;3.47;2.70;;;24.50;99.90;;;;;;5081934;28;20217;-77
2023/07/31 09:03:50;;;;;;;3.35;2.53;;;24.40;99.90;;;;;;5093135;28;20270;-77
2023/07/31 09:06:19;;;;;;;5.70;2.30;;;24.60;99.90;;;;;;5090875;28;20228;-72
2023/07/31 09:08:47;;;;;;;2.30;1.90;;;24.90;99.90;;;;;;5113557;28;20205;-72
2023/07/31 09:11:14;;;;;;;2.88;1.85;;;24.90;99.90;;;;;;5110293;28;20268;-66
2023/07/31 09:13:42;;;;;;;3.75;1.70;;;24.90;99.90;;;;;;5106730;28;20703;-67
2023/07/31 09:16:10;;;;;;;5.53;2.22;;;24.90;99.90;;;;;;5093238;28;20674;-66
2023/07/31 09:18:54;;;;;;;5.82;2.13;;;25.20;99.90;;;;;;5093687;28;20224;-75
2023/07/31 09:21:21;;;;;;;3.95;2.08;;;26.10;99.90;;;;;;5093434;28;20205;-68
2023/07/31 09:23:52;;;;;;;5.05;2.40;;;27.40;99.90;;;;;;5092701;28;20208;-73
2023/07/31 09:26:31;;;;;;;4.72;2.30;;;31.10;99.90;;;;;;5093176;28;20209;-69
2023/07/31 09:28:58;;;;;;;5.22;2.05;;;34.00;99.90;;;;;;5092745;28;20215;-68
2023/07/31 09:31:39;;;;;;;3.72;2.17;;;35.40;99.90;;;;;;5093410;28;20209;-79
2023/07/31 09:34:06;;;;;;;4.22;2.72;;;34.50;99.90;;;;;;5092796;28;20704;-69
2023/07/31 09:36:33;;;;;;;3.38;2.47;;;33.20;99.90;;;;;;5092975;28;20252;-69
2023/07/31 09:39:04;;;;;;;3.15;2.30;;;34.20;99.90;;;;;;5092681;28;20240;-76
2023/07/31 09:41:32;;;;;;;2.20;1.95;;;33.70;99.90;;;;;;5092680;28;20232;-70
2023/07/31 09:43:58;;;;;;;3.45;2.03;;;31.50;99.90;;;;;;5092306;28;20213;-69
2023/07/31 09:46:28;;;;;;;5.55;2.42;;;31.90;99.90;;;;;;5092866;28;20584;-73
2023/07/31 09:49:08;;;;;;;3.20;2.30;;;37.00;99.90;;;;;;5092314;28;20200;-71
2023/07/31 09:51:38;;;;;;;1.90;1.75;;;39.80;99.90;;;;;;5093195;28;20204;-77
2023/07/31 09:54:11;;;;;;;4.10;1.88;;;37.70;99.90;;;;;;5090083;28;20217;-69
2023/07/31 09:56:42;;;;;;;3.13;1.90;;;35.60;99.90;;;;;;5093145;28;20619;-70
2023/07/31 09:59:11;;;;;;;5.43;2.17;;;35.90;99.90;;;;;;5092543;28;20240;-69
2023/07/31 10:01:39;;;;;;;2.80;2.20;;;39.90;99.90;;;;;;5091942;28;20699;-70
2023/07/31 10:04:08;;;;;;;4.38;2.70;;;42.20;99.90;;;;;;5092229;28;20243;-70
2023/07/31 10:06:36;;;;;;;2.83;2.03;;;43.00;99.90;;;;;;5098265;28;20204;-67
2023/07/31 10:09:04;;;;;;;7.40;1.90;;;43.60;99.90;;;;;;5094824;28;20236;-77
2023/07/31 10:11:38;;;;;;;3.75;2.10;;;43.80;99.90;;;;;;5107552;28;20228;-66
2023/07/31 10:14:06;;;;;;;4.57;2.50;;;44.20;99.90;;;;;;5102549;28;20233;-68
2023/07/31 10:16:35;;;;;;;2.10;1.90;;;43.20;99.90;;;;;;5092119;28;20252;-75
2023/07/31 10:19:03;;;;;;;2.42;2.17;;;44.60;99.90;;;;;;5091745;28;20205;-66
2023/07/31 10:21:34;;;;;;;4.85;2.45;;;44.30;99.90;;;;;;5083135;28;20575;-73
2023/07/31 10:24:03;;;;;;;3.28;2.13;;;45.30;99.90;;;;;;5091708;28;20201;-76
2023/07/31 10:26:32;;;;;;;4.25;3.03;;;45.20;99.90;;;;;;5091939;28;20240;-68
2023/07/31 10:29:00;;;;;;;5.10;2.40;;;45.60;99.90;;;;;;5091724;28;20251;-75
2023/07/31 10:31:28;;;;;;;3.00;2.25;;;44.90;99.90;;;;;;5091664;28;20236;-67
2023/07/31 10:33:56;;;;;;;2.42;1.95;;;38.40;99.90;;;;;;5091137;28;20634;-68
2023/07/31 10:36:23;;;;;;;2.97;2.40;;;34.60;99.90;;;;;;5092096;28;20650;-69
2023/07/31 10:38:51;;;;;;;3.40;2.40;;;32.30;99.90;;;;;;5091321;28;20233;-75
2023/07/31 10:41:18;;;;;;;4.00;2.35;;;30.40;99.90;;;;;;5092136;28;20211;-71
2023/07/31 10:43:48;;;;;;;3.03;2.42;;;29.20;99.90;;;;;;5091319;28;20200;-71
2023/07/31 10:46:15;;;;;;;2.63;2.38;;;28.80;99.90;;;;;;5091919;28;20251;-71
2023/07/31 10:48:43;;;;;;;2.38;2.08;;;28.40;99.90;;;;;;5087835;28;20700;-68
2023/07/31 10:51:11;;;;;;;3.78;2.50;;;28.40;99.90;;;;;;5077416;28;20270;-68
2023/07/31 10:53:41;;;;;;;5.35;2.38;;;27.50;99.90;;;;;;5091798;28;20209;-67
2023/07/31 10:56:09;;;;;;;4.07;2.22;;;27.60;99.90;;;;;;5091677;28;20246;-73
2023/07/31 10:58:37;;;;;;;3.38;2.47;;;27.80;99.90;;;;;;5091663;28;20241;-74
2023/07/31 11:01:07;;;;;;;2.83;2.35;;;27.70;99.90;;;;;;5090414;28;20621;-79
2023/07/31 11:03:44;;;;;;;2.58;2.05;;;27.70;99.90;;;;;;5091158;28;20206;-80
2023/07/31 11:06:12;;;;;;;2.72;1.83;;;27.50;99.90;;;;;;5099576;28;20236;-67
2023/07/31 11:08:43;;;;;;;2.10;1.90;;;27.30;99.90;;;;;;5101970;28;20699;-67
2023/07/31 11:11:12;;;;;;;12.35;2.75;;;27.40;99.90;;;;;;5104376;28;20268;-67
2023/07/31 11:13:44;;;;;;;2.60;2.20;;;27.50;99.90;;;;;;5105227;28;20696;-65
2023/07/31 11:16:13;;;;;;;3.25;2.60;;;27.60;99.90;;;;;;5091314;28;20237;-67
2023/07/31 11:18:42;;;;;;;2.10;1.90;;;27.20;99.90;;;;;;5090339;28;20229;-67
2023/07/31 11:21:09;;;;;;;5.45;2.40;;;27.40;99.90;;;;;;5088927;28;20210;-67
2023/07/31 11:23:39;;;;;;;2.65;2.40;;;27.50;99.90;;;;;;5085000;28;20232;-67
2023/07/31 11:26:07;;;;;;;4.72;2.35;;;27.90;99.90;;;;;;5091063;28;20219;-75
2023/07/31 11:28:35;;;;;;;2.72;2.20;;;27.80;99.90;;;;;;5090960;28;20209;-70
2023/07/31 11:31:03;;;;;;;2.38;2.17;;;27.60;99.90;;;;;;5091263;28;20233;-75
2023/07/31 11:33:31;;;;;;;2.22;2.00;;;27.70;99.90;;;;;;5110918;27;20243;-67
2023/07/31 11:35:58;;;;;;;7.35;2.80;;;27.80;99.90;;;;;;5096490;28;20237;-73
2023/07/31 11:38:27;;;;;;;4.20;2.63;;;27.90;99.90;;;;;;5090918;28;20255;-68
2023/07/31 11:40:54;;;;;;;2.70;1.88;;;27.70;99.90;;;;;;5090683;28;20244;-75
2023/07/31 11:43:22;;;;;;;2.70;2.20;;;27.60;99.90;;;;;;5090697;28;20259;-68
2023/07/31 11:45:52;;;;;;;3.10;2.33;;;27.70;99.90;;;;;;5086602;28;20256;-68
2023/07/31 11:48:24;;;;;;;4.15;2.45;;;27.90;99.90;;;;;;5083601;28;20274;-74
2023/07/31 11:50:53;;;;;;;2.47;2.28;;;27.80;99.90;;;;;;5090083;28;20261;-75
2023/07/31 11:53:25;;;;;;;3.95;2.55;;;28.00;99.90;;;;;;5090175;28;20201;-70
2023/07/31 11:55:53;;;;;;;4.18;2.60;;;28.10;99.90;;;;;;5090306;28;20237;-67
2023/07/31 11:58:21;;;;;;;3.85;2.65;;;28.10;99.90;;;;;;5090363;28;20247;-75
2023/07/31 12:00:49;;;;;;;3.05;2.70;;;27.60;99.90;;;;;;5089947;28;20241;-68
2023/07/31 12:03:16;;;;;;;2.67;2.03;;;27.80;99.90;;;;;;5084582;28;20255;-70
2023/07/31 12:05:43;;;;;;;2.95;1.83;;;27.70;99.90;;;;;;5088685;28;20233;-76
2023/07/31 12:08:12;;;;;;;3.17;2.78;;;27.60;99.90;;;;;;5090425;28;20252;-72
2023/07/31 12:10:40;;;;;;;2.85;2.40;;;27.60;99.90;;;;;;5099219;28;20228;-75
2023/07/31 12:13:13;;;;;;;5.50;2.40;;;27.80;99.90;;;;;;5109026;28;20215;-73
2023/07/31 12:15:41;;;;;;;5.50;2.53;;;27.90;99.90;;;;;;5090097;28;20688;-71
2023/07/31 12:18:10;;;;;;;2.97;1.80;;;28.00;99.90;;;;;;5090546;28;20212;-68
2023/07/31 12:20:42;;;;;;;2.47;2.25;;;28.30;99.90;;;;;;5090961;28;20248;-76
2023/07/31 12:23:16;;;;;;;5.78;2.50;;;28.20;99.90;;;;;;5090405;28;20209;-68
2023/07/31 12:25:42;;;;;;;3.65;2.60;;;28.30;99.90;;;;;;5079134;28;20350;-68
2023/07/31 12:28:12;;;;;;;3.63;2.83;;;28.20;99.90;;;;;;5090403;28;20209;-69
2023/07/31 12:30:40;;;;;;;3.40;2.28;;;28.40;99.90;;;;;;5094332;28;20225;-71
2023/07/31 12:33:13;;;;;;;3.53;2.33;;;28.40;99.90;;;;;;5087972;28;20652;-68
2023/07/31 12:35:45;;;;;;;5.35;2.90;;;28.50;99.90;;;;;;5092724;28;20233;-70
2023/07/31 12:38:13;;;;;;;4.55;2.65;;;28.30;99.90;;;;;;5095672;28;20229;-70
2023/07/31 12:40:43;;;;;;;3.10;2.80;;;28.00;99.90;;;;;;5114499;28;20595;-71
2023/07/31 12:43:10;;;;;;;3.65;2.33;;;28.20;99.90;;;;;;5114998;28;20364;-71
2023/07/31 12:45:37;;;;;;;3.20;1.80;;;28.40;99.90;;;;;;5114712;27;20205;-76
2023/07/31 12:48:04;;;;;;;4.20;2.42;;;28.50;99.90;;;;;;5103046;28;20216;-70